Terminal Aerodrome Forecast
Issued by NWS

Home | Current Version | Previous Version | Text Only | Print | Product List | Glossary On
Versions: 1 2 3 4 5 6 7 8 9 10 11 12 13 14 15 16 17 18 19 20 21
000
FTUS46 KMTR 212300
TAFSTS
TAF
KSTS 212320Z 2200/2224 VRB03KT P6SM BKN012 BKN028
     FM220300 00000KT 5SM BR OVC007
     FM220600 00000KT 3SM BR OVC004
     FM221000 00000KT 2SM BR OVC003
     FM222000 33004KT 5SM BR OVC007=

USA.gov is the U.S. government's official web portal to all federal, state and local government web resources and services.